Time;durP1;ratioP1;P1;durP2;ratioP2;P2;SDS_P1;SDS_P2;PMS_P1;PMS_P2;Temp;Humidity;BMP_temperature;BMP_pressure;BME280_temperature;BME280_humidity;BME280_pressure;Samples;Min_cycle;Max_cycle;Signal;HPM_P1;HPM_P2
2021/03/01 00:00:03;;;;;;;2.78;2.58;;;23.60;28.40;;;;;;5027493;28;20214;-58
2021/03/01 00:02:29;;;;;;;2.90;2.67;;;23.60;28.40;;;;;;5033735;28;20209;-58
2021/03/01 00:04:55;;;;;;;4.60;3.13;;;23.60;28.40;;;;;;5030244;28;20209;-57
2021/03/01 00:07:21;;;;;;;3.63;3.28;;;23.50;28.40;;;;;;5021565;28;20223;-57
2021/03/01 00:09:47;;;;;;;3.70;3.15;;;23.60;28.50;;;;;;5016034;28;20245;-56
2021/03/01 00:12:13;;;;;;;3.17;2.85;;;23.60;28.50;;;;;;5030711;28;20558;-58
2021/03/01 00:14:39;;;;;;;3.30;3.00;;;23.50;28.40;;;;;;5016551;28;20218;-56
2021/03/01 00:17:05;;;;;;;3.33;3.00;;;23.50;28.40;;;;;;5021049;28;20222;-58
2021/03/01 00:19:31;;;;;;;2.97;2.75;;;23.50;28.40;;;;;;5020846;28;20277;-58
2021/03/01 00:21:56;;;;;;;3.10;2.80;;;23.50;28.40;;;;;;5020899;28;20319;-58
2021/03/01 00:24:22;;;;;;;3.13;2.88;;;23.60;28.40;;;;;;5016713;28;20215;-58
2021/03/01 00:26:48;;;;;;;3.75;3.33;;;23.60;28.50;;;;;;5024272;28;20625;-58
2021/03/01 00:29:14;;;;;;;3.25;2.40;;;23.50;28.40;;;;;;5026204;28;20718;-58
2021/03/01 00:31:40;;;;;;;3.50;3.20;;;23.60;28.40;;;;;;5021960;28;20199;-58
2021/03/01 00:34:06;;;;;;;2.85;2.65;;;23.60;28.40;;;;;;5028653;28;20206;-59
2021/03/01 00:36:32;;;;;;;2.58;2.38;;;23.60;28.40;;;;;;5032035;28;20213;-58
2021/03/01 00:39:00;;;;;;;3.35;3.05;;;23.50;28.90;;;;;;5027749;28;20218;-58
2021/03/01 00:41:26;;;;;;;4.38;2.90;;;23.60;28.40;;;;;;5029133;28;20631;-58
2021/03/01 00:43:51;;;;;;;3.53;2.80;;;23.60;28.40;;;;;;5033048;28;20224;-58
2021/03/01 00:46:17;;;;;;;3.00;2.60;;;23.60;28.40;;;;;;5030558;28;20202;-56
2021/03/01 00:48:43;;;;;;;2.88;2.67;;;23.60;28.40;;;;;;5021758;28;20281;-58
2021/03/01 00:51:09;;;;;;;2.97;2.67;;;23.50;28.40;;;;;;5032553;28;20210;-58
2021/03/01 00:53:35;;;;;;;2.67;2.47;;;23.50;28.40;;;;;;5022861;28;20199;-58
2021/03/01 00:56:01;;;;;;;2.97;2.58;;;23.50;28.40;;;;;;5031103;28;20206;-58
2021/03/01 00:58:27;;;;;;;2.58;2.38;;;23.50;28.40;;;;;;5024492;28;20340;-59
2021/03/01 01:00:53;;;;;;;2.60;2.40;;;23.50;28.40;;;;;;5015974;28;20207;-58
2021/03/01 01:03:19;;;;;;;2.78;2.58;;;23.50;28.40;;;;;;5018530;28;20640;-58
2021/03/01 01:05:45;;;;;;;3.15;2.85;;;23.50;28.40;;;;;;5026032;28;20862;-58
2021/03/01 01:08:11;;;;;;;3.00;2.80;;;23.50;28.40;;;;;;5024790;28;20222;-58
2021/03/01 01:10:36;;;;;;;3.00;2.70;;;23.50;28.40;;;;;;5027995;28;20222;-57
2021/03/01 01:13:02;;;;;;;3.22;2.92;;;23.50;28.40;;;;;;5023319;28;20199;-56
2021/03/01 01:15:28;;;;;;;2.47;2.28;;;23.50;28.40;;;;;;5030516;28;20206;-58
2021/03/01 01:17:54;;;;;;;3.22;3.00;;;23.50;28.40;;;;;;5030977;28;20240;-55
2021/03/01 01:20:20;;;;;;;3.13;2.83;;;23.50;28.40;;;;;;5030457;28;20222;-58
2021/03/01 01:22:46;;;;;;;3.35;2.78;;;23.50;28.40;;;;;;5023954;28;20214;-57
2021/03/01 01:25:12;;;;;;;3.40;2.80;;;23.50;28.40;;;;;;5031268;28;20276;-56
2021/03/01 01:27:38;;;;;;;2.63;2.42;;;23.50;28.40;;;;;;5025720;28;20594;-56
2021/03/01 01:30:04;;;;;;;2.72;2.53;;;23.50;28.40;;;;;;5031826;28;20832;-58
2021/03/01 01:32:30;;;;;;;3.35;3.05;;;23.50;28.40;;;;;;5027125;28;20209;-58
2021/03/01 01:34:56;;;;;;;3.63;2.70;;;23.50;28.40;;;;;;5026169;28;20206;-58
2021/03/01 01:37:21;;;;;;;2.75;2.55;;;23.50;28.40;;;;;;5024076;28;20232;-57
2021/03/01 01:39:47;;;;;;;2.90;2.42;;;23.50;28.90;;;;;;5015158;28;20226;-58
2021/03/01 01:42:13;;;;;;;2.80;2.60;;;23.50;28.40;;;;;;5015409;28;20206;-57
2021/03/01 01:44:39;;;;;;;3.35;2.97;;;23.50;28.40;;;;;;5027815;28;20626;-57
2021/03/01 01:47:05;;;;;;;4.10;2.75;;;23.50;28.90;;;;;;5030743;28;20202;-56
2021/03/01 01:49:31;;;;;;;2.85;2.65;;;23.50;28.40;;;;;;5028691;28;20226;-58
2021/03/01 01:51:57;;;;;;;2.80;2.60;;;23.50;28.40;;;;;;5029958;28;20390;-58
2021/03/01 01:54:23;;;;;;;3.00;2.75;;;23.50;28.40;;;;;;5029962;28;20206;-57
2021/03/01 01:56:49;;;;;;;2.78;2.58;;;23.50;28.40;;;;;;5018358;28;20199;-57
2021/03/01 01:59:15;;;;;;;3.10;2.50;;;23.50;28.40;;;;;;5022027;28;20219;-57
2021/03/01 02:01:41;;;;;;;2.92;2.67;;;23.50;28.40;;;;;;5012714;28;20207;-57
2021/03/01 02:04:06;;;;;;;2.88;2.67;;;23.50;28.40;;;;;;5011775;28;20652;-57
2021/03/01 02:06:32;;;;;;;4.38;2.70;;;23.50;28.40;;;;;;5019052;28;20217;-57
2021/03/01 02:08:58;;;;;;;3.05;2.78;;;23.50;28.40;;;;;;5029943;28;20237;-58
2021/03/01 02:11:24;;;;;;;2.88;2.67;;;23.50;28.40;;;;;;5032241;28;20217;-58
2021/03/01 02:13:50;;;;;;;3.08;2.78;;;23.50;28.40;;;;;;5021316;28;20206;-58
2021/03/01 02:16:16;;;;;;;2.70;2.50;;;23.50;28.40;;;;;;5024851;28;20207;-55
2021/03/01 02:18:42;;;;;;;2.77;2.57;;;23.50;28.40;;;;;;5026316;28;20261;-58
2021/03/01 02:21:08;;;;;;;2.83;2.63;;;23.50;28.40;;;;;;5024890;28;20665;-57
2021/03/01 02:23:34;;;;;;;2.95;2.67;;;23.50;28.40;;;;;;5029040;28;20221;-58
2021/03/01 02:26:00;;;;;;;2.80;2.60;;;23.50;28.40;;;;;;5021134;28;20214;-56
2021/03/01 02:28:26;;;;;;;2.90;2.60;;;23.50;28.40;;;;;;5022503;28;20230;-59
2021/03/01 02:30:51;;;;;;;2.33;2.17;;;23.50;28.40;;;;;;5026499;28;20202;-58
2021/03/01 02:33:17;;;;;;;2.42;2.20;;;23.50;28.40;;;;;;5012040;28;20233;-58
2021/03/01 02:35:43;;;;;;;2.92;2.72;;;23.50;28.40;;;;;;5011579;28;20253;-57
2021/03/01 02:38:09;;;;;;;3.03;2.80;;;23.50;28.40;;;;;;5022214;28;20307;-57
2021/03/01 02:40:35;;;;;;;2.70;2.50;;;23.50;28.40;;;;;;5026702;28;20580;-54
2021/03/01 02:43:01;;;;;;;5.55;2.85;;;23.50;28.40;;;;;;5014435;28;20752;-56
2021/03/01 02:45:27;;;;;;;2.60;2.40;;;23.40;28.00;;;;;;5029181;28;20896;-58
2021/03/01 02:47:53;;;;;;;2.63;2.43;;;23.40;28.20;;;;;;5023952;28;20209;-58
2021/03/01 02:50:19;;;;;;;3.10;2.80;;;23.40;28.30;;;;;;5031306;28;20213;-56
2021/03/01 02:52:45;;;;;;;2.90;2.50;;;23.40;28.30;;;;;;5028861;28;20205;-58
2021/03/01 02:55:11;;;;;;;2.50;2.30;;;23.40;28.30;;;;;;5029661;28;20209;-58
2021/03/01 02:57:36;;;;;;;3.95;2.53;;;23.40;28.30;;;;;;5026117;28;20236;-55
2021/03/01 03:00:02;;;;;;;2.75;2.47;;;23.40;28.30;;;;;;5020690;28;20218;-56
2021/03/01 03:02:28;;;;;;;3.10;2.85;;;23.40;28.30;;;;;;5033322;28;20569;-58
2021/03/01 03:04:54;;;;;;;3.88;2.47;;;23.40;28.30;;;;;;5021166;28;20590;-58
2021/03/01 03:07:20;;;;;;;2.53;2.33;;;23.40;28.30;;;;;;5034924;28;20206;-56
2021/03/01 03:09:46;;;;;;;2.92;2.63;;;23.40;28.30;;;;;;5031187;28;20277;-57
2021/03/01 03:12:12;;;;;;;2.53;2.30;;;23.50;28.40;;;;;;5030362;28;20268;-56
2021/03/01 03:14:38;;;;;;;2.40;2.10;;;23.50;28.40;;;;;;5028108;28;20206;-57
2021/03/01 03:17:04;;;;;;;2.50;2.30;;;23.50;28.40;;;;;;5028516;28;20231;-57
2021/03/01 03:19:30;;;;;;;3.00;2.63;;;23.50;28.40;;;;;;5028426;28;20562;-54
2021/03/01 03:21:56;;;;;;;2.40;2.20;;;23.50;28.40;;;;;;5033269;28;20655;-56
2021/03/01 03:24:22;;;;;;;2.35;2.17;;;23.50;28.40;;;;;;5032110;28;20214;-57
2021/03/01 03:26:47;;;;;;;2.40;2.20;;;23.50;28.40;;;;;;5033954;28;20211;-57
2021/03/01 03:29:13;;;;;;;2.80;2.60;;;23.40;28.30;;;;;;5025897;28;20227;-56
2021/03/01 03:31:39;;;;;;;3.80;2.88;;;23.50;28.40;;;;;;5025542;28;20209;-56
2021/03/01 03:34:05;;;;;;;2.72;2.53;;;23.50;28.40;;;;;;5030558;28;20203;-57
2021/03/01 03:36:31;;;;;;;2.40;2.20;;;23.50;28.40;;;;;;5028806;28;20199;-57
2021/03/01 03:38:57;;;;;;;2.45;2.10;;;23.40;28.30;;;;;;5027329;28;20242;-57
2021/03/01 03:41:23;;;;;;;3.38;3.03;;;23.50;28.40;;;;;;5034431;28;20199;-57
2021/03/01 03:43:49;;;;;;;3.25;2.30;;;23.50;28.30;;;;;;5030729;28;20252;-56
2021/03/01 03:46:15;;;;;;;3.28;2.63;;;23.50;28.40;;;;;;5034050;28;20201;-57
2021/03/01 03:48:41;;;;;;;2.78;2.53;;;23.50;28.40;;;;;;5026175;28;20230;-56
2021/03/01 03:51:07;;;;;;;2.33;2.22;;;23.50;28.20;;;;;;5032956;28;20198;-58
2021/03/01 03:53:33;;;;;;;2.50;2.30;;;23.40;28.20;;;;;;5032543;28;20305;-57
2021/03/01 03:55:59;;;;;;;4.57;2.58;;;23.40;28.20;;;;;;5031953;28;20209;-56
2021/03/01 03:58:24;;;;;;;2.20;2.00;;;23.40;28.10;;;;;;5031443;28;20245;-56
2021/03/01 04:00:50;;;;;;;3.10;2.78;;;23.50;28.20;;;;;;5032090;28;20217;-58
2021/03/01 04:03:16;;;;;;;2.42;2.22;;;23.40;28.10;;;;;;5030541;28;20203;-57
2021/03/01 04:05:43;;;;;;;2.70;2.50;;;23.40;28.10;;;;;;5023287;28;20213;-58
2021/03/01 04:08:09;;;;;;;2.60;2.40;;;23.40;28.30;;;;;;5032224;28;20250;-58
2021/03/01 04:10:35;;;;;;;5.38;2.50;;;23.40;28.30;;;;;;5027100;28;20687;-58
2021/03/01 04:13:01;;;;;;;2.38;2.17;;;23.40;28.30;;;;;;5029455;28;20257;-58
2021/03/01 04:15:27;;;;;;;2.33;2.13;;;23.40;28.30;;;;;;5030779;28;20212;-58
2021/03/01 04:17:53;;;;;;;2.17;1.98;;;23.50;28.40;;;;;;5022934;28;20245;-58
2021/03/01 04:20:19;;;;;;;2.50;2.30;;;23.50;28.40;;;;;;5021874;28;20241;-58
2021/03/01 04:22:45;;;;;;;2.50;2.30;;;23.40;28.30;;;;;;5019025;28;20211;-58
2021/03/01 04:25:11;;;;;;;2.50;2.30;;;23.50;28.40;;;;;;5024209;28;20203;-57
2021/03/01 04:27:38;;;;;;;2.45;2.20;;;23.50;29.00;;;;;;5032405;28;20660;-56
2021/03/01 04:30:04;;;;;;;2.80;2.45;;;23.40;28.30;;;;;;5033044;28;20210;-57
2021/03/01 04:32:30;;;;;;;2.55;2.35;;;23.40;28.30;;;;;;5031184;28;20215;-56
2021/03/01 04:34:56;;;;;;;2.83;2.22;;;23.50;28.40;;;;;;5031777;28;20195;-58
2021/03/01 04:37:21;;;;;;;2.78;2.38;;;23.40;28.30;;;;;;5032278;28;20237;-58
2021/03/01 04:39:47;;;;;;;2.47;2.28;;;23.40;28.30;;;;;;5028817;28;20225;-58
2021/03/01 04:42:13;;;;;;;2.63;2.20;;;23.40;28.30;;;;;;5018509;28;20207;-58
2021/03/01 04:44:39;;;;;;;2.67;2.20;;;23.40;28.30;;;;;;5013631;28;20204;-56
2021/03/01 04:47:05;;;;;;;2.78;2.45;;;23.40;28.30;;;;;;5028194;28;20202;-58
2021/03/01 04:49:31;;;;;;;2.33;2.05;;;23.40;28.30;;;;;;5026003;28;20223;-56
2021/03/01 04:51:57;;;;;;;2.50;2.30;;;23.40;28.30;;;;;;5021970;28;20218;-58
2021/03/01 04:54:23;;;;;;;2.33;2.13;;;23.40;28.30;;;;;;5030848;28;20680;-57
2021/03/01 04:56:49;;;;;;;2.00;1.90;;;23.40;28.30;;;;;;5018046;28;20218;-57
2021/03/01 04:59:15;;;;;;;2.80;2.10;;;23.40;28.30;;;;;;5019564;28;20219;-58
2021/03/01 05:01:41;;;;;;;2.25;2.08;;;23.40;28.30;;;;;;5025352;28;20199;-57
2021/03/01 05:04:07;;;;;;;2.47;2.27;;;23.40;28.30;;;;;;5025257;28;20206;-56
2021/03/01 05:06:32;;;;;;;2.38;2.17;;;23.40;28.30;;;;;;5021759;28;20198;-56
2021/03/01 05:08:58;;;;;;;2.50;2.30;;;23.40;28.30;;;;;;5030414;28;20218;-55
2021/03/01 05:11:24;;;;;;;3.08;2.33;;;23.40;28.30;;;;;;5023397;28;20203;-54
2021/03/01 05:13:50;;;;;;;2.70;2.50;;;23.40;28.20;;;;;;5014561;28;20226;-59
2021/03/01 05:16:16;;;;;;;2.78;2.28;;;23.50;28.20;;;;;;5011883;28;20616;-56
2021/03/01 05:18:42;;;;;;;2.40;2.20;;;23.50;28.20;;;;;;5023475;28;20233;-56
2021/03/01 05:21:08;;;;;;;2.38;2.17;;;23.40;28.20;;;;;;5017009;28;20233;-55
2021/03/01 05:23:34;;;;;;;2.47;2.28;;;23.50;28.20;;;;;;5026694;28;20214;-54
2021/03/01 05:26:00;;;;;;;2.70;2.42;;;23.40;28.20;;;;;;5029377;28;20202;-52
2021/03/01 05:28:26;;;;;;;2.58;2.35;;;23.40;28.20;;;;;;5025117;28;20233;-56
2021/03/01 05:30:52;;;;;;;2.42;2.22;;;23.40;28.30;;;;;;5030619;28;20249;-55
2021/03/01 05:33:18;;;;;;;2.50;2.28;;;23.40;28.30;;;;;;5025115;28;20199;-56
2021/03/01 05:35:44;;;;;;;1.95;1.85;;;23.40;28.30;;;;;;5031281;28;20209;-56
2021/03/01 05:38:10;;;;;;;2.30;2.10;;;23.40;28.30;;;;;;5016714;28;20243;-56
2021/03/01 05:40:36;;;;;;;2.17;2.05;;;23.40;28.30;;;;;;5012675;28;20206;-57
2021/03/01 05:43:02;;;;;;;2.60;2.03;;;23.40;28.30;;;;;;5028144;28;20229;-56
2021/03/01 05:45:28;;;;;;;4.13;2.30;;;23.40;28.30;;;;;;5018597;28;20551;-58
2021/03/01 05:47:54;;;;;;;2.30;2.10;;;23.40;28.30;;;;;;5021645;28;20542;-58
2021/03/01 05:50:20;;;;;;;2.42;2.10;;;23.40;28.30;;;;;;5029222;28;20557;-56
2021/03/01 05:52:45;;;;;;;1.93;1.80;;;23.40;28.30;;;;;;5029092;28;20659;-56
2021/03/01 05:55:11;;;;;;;3.03;2.40;;;23.40;28.30;;;;;;5028586;28;20198;-56
2021/03/01 05:57:37;;;;;;;2.38;2.22;;;23.40;28.30;;;;;;5030278;28;20238;-56
2021/03/01 06:00:03;;;;;;;2.30;2.10;;;23.40;28.30;;;;;;5029402;28;20206;-55
2021/03/01 06:02:29;;;;;;;3.40;2.10;;;23.40;28.30;;;;;;5020015;28;20203;-55
2021/03/01 06:04:55;;;;;;;2.60;2.40;;;23.40;28.30;;;;;;5020618;28;20202;-57
2021/03/01 06:07:21;;;;;;;2.35;2.15;;;23.40;28.30;;;;;;5020114;28;20231;-58
2021/03/01 06:09:47;;;;;;;2.30;2.10;;;23.40;28.30;;;;;;5013729;28;20234;-57
2021/03/01 06:12:13;;;;;;;2.55;2.20;;;23.40;28.30;;;;;;5027513;28;20222;-55
2021/03/01 06:14:39;;;;;;;2.00;1.90;;;23.40;28.30;;;;;;5012269;28;20204;-56
2021/03/01 06:17:05;;;;;;;2.35;2.20;;;23.40;28.30;;;;;;5019696;28;20202;-56
2021/03/01 06:19:31;;;;;;;2.47;2.28;;;23.40;28.30;;;;;;5022839;28;20248;-57
2021/03/01 06:21:57;;;;;;;2.28;2.08;;;23.40;28.30;;;;;;5014845;28;20218;-55
2021/03/01 06:24:22;;;;;;;3.25;2.40;;;23.40;28.30;;;;;;5020173;28;20221;-57
2021/03/01 06:26:48;;;;;;;3.13;2.03;;;23.40;28.30;;;;;;5012050;28;20211;-57
2021/03/01 06:29:14;;;;;;;3.13;2.10;;;23.40;28.30;;;;;;5026640;28;20203;-57
2021/03/01 06:31:40;;;;;;;2.00;1.90;;;23.40;28.30;;;;;;5022848;28;20203;-54
2021/03/01 06:34:06;;;;;;;2.53;2.20;;;23.40;28.30;;;;;;5026712;28;20214;-56
2021/03/01 06:36:32;;;;;;;2.33;2.13;;;23.40;28.30;;;;;;5017224;28;20209;-56
2021/03/01 06:38:58;;;;;;;1.92;1.83;;;23.40;28.30;;;;;;5030138;28;20252;-55
2021/03/01 06:41:25;;;;;;;2.40;2.20;;;23.40;28.30;;;;;;5028419;28;20198;-56
2021/03/01 06:43:50;;;;;;;2.30;2.10;;;23.40;28.30;;;;;;5027337;28;20300;-56
2021/03/01 06:46:16;;;;;;;2.25;2.05;;;23.40;28.30;;;;;;5014031;28;20207;-58
2021/03/01 06:48:42;;;;;;;2.95;2.67;;;23.40;28.30;;;;;;5018216;28;20230;-57
2021/03/01 06:51:08;;;;;;;2.70;2.50;;;23.40;28.30;;;;;;5018733;28;20547;-58
2021/03/01 06:53:34;;;;;;;3.13;2.40;;;23.40;28.30;;;;;;5021087;28;20574;-57
2021/03/01 06:56:00;;;;;;;2.33;2.10;;;23.40;28.30;;;;;;5014725;28;20655;-58
2021/03/01 06:58:27;;;;;;;2.60;1.90;;;23.40;28.30;;;;;;5019436;28;20234;-58
2021/03/01 07:00:53;;;;;;;2.60;2.40;;;23.40;28.30;;;;;;5030235;28;20631;-57
2021/03/01 07:03:19;;;;;;;2.30;2.10;;;23.40;28.30;;;;;;5020639;28;20199;-58
2021/03/01 07:05:45;;;;;;;3.17;2.20;;;23.40;28.30;;;;;;5023343;28;20198;-56
2021/03/01 07:08:11;;;;;;;3.28;1.95;;;23.40;28.30;;;;;;5029527;28;20226;-57
2021/03/01 07:10:36;;;;;;;2.58;2.08;;;23.40;28.70;;;;;;5026657;28;20210;-53
2021/03/01 07:13:02;;;;;;;4.57;2.50;;;23.40;28.70;;;;;;5027118;28;20575;-52
2021/03/01 07:15:28;;;;;;;3.35;2.20;;;23.40;28.60;;;;;;5014028;28;20198;-50
2021/03/01 07:17:56;;;;;;;2.40;2.20;;;23.40;28.30;;;;;;5029762;28;20329;-52
2021/03/01 07:20:22;;;;;;;4.45;2.33;;;23.40;28.40;;;;;;5023686;28;20293;-54
2021/03/01 07:22:48;;;;;;;6.03;2.35;;;23.50;28.40;;;;;;5025829;28;20682;-57
2021/03/01 07:25:14;;;;;;;2.40;1.95;;;23.40;28.40;;;;;;5028460;28;20202;-57
2021/03/01 07:27:40;;;;;;;4.30;2.20;;;23.50;28.40;;;;;;5029576;28;20230;-59
2021/03/01 07:30:06;;;;;;;3.95;2.10;;;23.50;28.60;;;;;;5017290;28;20199;-59
2021/03/01 07:32:32;;;;;;;3.20;2.33;;;23.40;28.30;;;;;;5028066;28;20695;-60
2021/03/01 07:34:58;;;;;;;8.43;2.58;;;23.40;28.80;;;;;;5030520;28;20211;-59
2021/03/01 07:37:24;;;;;;;2.97;2.57;;;23.40;28.90;;;;;;5014710;28;20583;-59
2021/03/01 07:39:50;;;;;;;11.20;2.97;;;23.40;28.90;;;;;;5021640;28;20652;-52
2021/03/01 07:42:16;;;;;;;7.78;2.53;;;23.40;31.20;;;;;;5031204;28;20225;-54
2021/03/01 07:44:42;;;;;;;6.53;3.08;;;23.50;30.50;;;;;;5030956;28;20280;-56
2021/03/01 07:47:08;;;;;;;6.75;2.90;;;23.40;31.10;;;;;;5025149;28;20285;-53
2021/03/01 07:49:34;;;;;;;7.53;2.85;;;23.40;31.50;;;;;;5020291;28;20570;-54
2021/03/01 07:52:00;;;;;;;8.02;2.90;;;23.30;32.10;;;;;;5032962;28;20202;-50
2021/03/01 07:54:26;;;;;;;12.15;3.30;;;23.30;32.60;;;;;;5016189;28;20210;-51
2021/03/01 07:56:52;;;;;;;6.32;2.90;;;23.30;32.60;;;;;;5014288;28;20223;-52
2021/03/01 07:59:17;;;;;;;8.25;3.45;;;23.20;32.60;;;;;;5014354;28;20238;-53
2021/03/01 08:01:45;;;;;;;11.32;6.32;;;23.20;32.50;;;;;;5028230;28;20253;-49
2021/03/01 08:04:11;;;;;;;8.50;5.67;;;22.00;27.20;;;;;;5032015;28;20288;-54
2021/03/01 08:06:37;;;;;;;8.03;5.60;;;21.20;26.80;;;;;;5032412;28;20571;-51
2021/03/01 08:09:02;;;;;;;8.40;5.37;;;21.50;27.00;;;;;;5033583;28;20654;-52
2021/03/01 08:11:28;;;;;;;12.00;4.67;;;21.90;28.00;;;;;;5017075;28;20209;-52
2021/03/01 08:13:54;;;;;;;6.20;4.37;;;22.20;29.00;;;;;;5030071;28;20222;-54
2021/03/01 08:16:20;;;;;;;7.77;4.53;;;22.50;29.30;;;;;;5032494;28;20202;-55
2021/03/01 08:18:46;;;;;;;5.13;3.63;;;22.70;29.60;;;;;;5032513;28;20247;-53
2021/03/01 08:21:12;;;;;;;5.30;3.50;;;22.80;29.90;;;;;;5028846;28;20205;-56
2021/03/01 08:23:38;;;;;;;5.23;3.60;;;22.90;29.90;;;;;;5031710;28;20218;-52
2021/03/01 08:26:04;;;;;;;5.90;3.87;;;22.90;29.90;;;;;;5020884;28;20217;-51
2021/03/01 08:28:32;;;;;;;4.77;3.43;;;23.00;30.00;;;;;;5028787;28;20244;-55
2021/03/01 08:30:58;;;;;;;3.80;3.07;;;23.00;29.90;;;;;;5014335;28;20214;-54
2021/03/01 08:33:23;;;;;;;7.17;3.33;;;23.10;29.90;;;;;;5041963;23;20295;-59
2021/03/01 08:35:49;;;;;;;4.20;3.57;;;23.20;29.90;;;;;;5030232;28;20218;-60
2021/03/01 08:38:15;;;;;;;5.10;3.43;;;23.20;30.00;;;;;;5030050;28;20226;-58
2021/03/01 08:40:41;;;;;;;3.87;3.00;;;23.20;30.60;;;;;;5029672;28;20216;-59
2021/03/01 08:43:07;;;;;;;5.50;3.50;;;23.20;30.30;;;;;;5019901;28;20206;-59
2021/03/01 08:45:33;;;;;;;3.40;2.70;;;23.20;30.40;;;;;;5035863;28;20206;-57
2021/03/01 08:47:59;;;;;;;3.83;3.30;;;23.20;30.40;;;;;;5031508;28;20327;-51
2021/03/01 08:50:25;;;;;;;5.70;3.03;;;23.30;30.50;;;;;;5030090;28;20198;-56
2021/03/01 08:52:51;;;;;;;3.97;3.03;;;23.30;30.60;;;;;;5029899;28;20202;-49
2021/03/01 08:55:17;;;;;;;5.93;3.80;;;23.30;29.90;;;;;;5032549;28;20544;-49
2021/03/01 08:57:43;;;;;;;4.00;3.07;;;23.30;30.50;;;;;;5029687;28;20691;-52
2021/03/01 09:00:08;;;;;;;4.80;3.22;;;23.40;30.50;;;;;;5027285;28;20662;-60
2021/03/01 09:02:34;;;;;;;4.70;3.17;;;23.40;30.70;;;;;;5028265;28;20229;-60
2021/03/01 09:05:00;;;;;;;3.47;3.17;;;23.40;30.50;;;;;;5030775;28;20261;-59
2021/03/01 09:07:26;;;;;;;3.35;2.67;;;23.40;30.60;;;;;;5030963;28;20226;-60
2021/03/01 09:09:52;;;;;;;3.73;3.10;;;23.30;30.50;;;;;;5024638;28;20210;-57
2021/03/01 09:12:18;;;;;;;2.78;2.50;;;23.40;30.70;;;;;;5031761;28;20235;-57
2021/03/01 09:14:44;;;;;;;5.13;2.88;;;23.40;30.30;;;;;;5027929;28;20214;-56
2021/03/01 09:17:10;;;;;;;6.88;3.70;;;23.40;30.50;;;;;;5030180;28;20223;-58
2021/03/01 09:19:36;;;;;;;4.88;3.50;;;23.40;30.40;;;;;;5032360;28;20206;-55
2021/03/01 09:22:02;;;;;;;4.30;3.45;;;23.40;30.10;;;;;;5015461;28;20269;-58
2021/03/01 09:24:28;;;;;;;4.13;3.58;;;23.30;28.80;;;;;;5032123;28;20636;-58
2021/03/01 09:26:54;;;;;;;4.88;3.10;;;23.30;28.50;;;;;;5032650;28;20218;-52
2021/03/01 09:29:20;;;;;;;6.95;3.65;;;23.30;29.90;;;;;;5026833;28;20210;-52
2021/03/01 09:31:46;;;;;;;7.63;3.72;;;23.40;29.60;;;;;;5024285;28;20671;-55
2021/03/01 09:34:12;;;;;;;6.13;2.92;;;23.40;29.20;;;;;;5031642;28;20205;-54
2021/03/01 09:36:38;;;;;;;3.00;2.70;;;23.40;29.30;;;;;;5031904;28;20237;-53
2021/03/01 09:39:03;;;;;;;4.03;2.65;;;23.40;29.40;;;;;;5032688;28;20517;-50
2021/03/01 09:41:29;;;;;;;5.13;2.60;;;23.40;29.30;;;;;;5032659;28;20214;-54
2021/03/01 09:43:55;;;;;;;4.18;2.80;;;23.40;29.40;;;;;;5032769;28;20205;-55
2021/03/01 09:46:21;;;;;;;2.75;2.40;;;23.50;29.40;;;;;;5032139;28;20234;-54
2021/03/01 09:48:47;;;;;;;3.20;2.58;;;23.40;29.30;;;;;;5030868;28;20225;-56
2021/03/01 09:51:13;;;;;;;3.97;2.60;;;23.50;29.40;;;;;;5032515;28;20553;-53
2021/03/01 09:53:39;;;;;;;5.65;3.15;;;23.40;29.30;;;;;;5032312;28;20207;-54
2021/03/01 09:56:05;;;;;;;4.32;2.53;;;23.50;29.30;;;;;;5031482;28;20223;-52
2021/03/01 09:58:31;;;;;;;6.80;2.70;;;23.50;29.30;;;;;;5032160;28;20237;-54
2021/03/01 10:00:57;;;;;;;4.50;2.88;;;23.50;29.30;;;;;;5030073;28;20210;-55
2021/03/01 10:03:23;;;;;;;2.53;2.33;;;23.50;29.30;;;;;;5031618;28;20214;-56
2021/03/01 10:05:49;;;;;;;4.22;2.92;;;23.50;29.30;;;;;;5031655;28;20265;-53
2021/03/01 10:08:14;;;;;;;3.05;2.38;;;23.50;29.30;;;;;;5031242;28;20221;-55
2021/03/01 10:10:40;;;;;;;3.20;2.60;;;23.50;29.20;;;;;;5032466;28;20209;-54
2021/03/01 10:13:06;;;;;;;3.00;2.72;;;23.50;29.20;;;;;;5032155;28;20205;-56
2021/03/01 10:15:32;;;;;;;3.45;2.50;;;23.50;29.20;;;;;;5032138;28;20214;-56
2021/03/01 10:17:58;;;;;;;3.67;2.53;;;23.50;29.20;;;;;;5031640;28;20234;-54
2021/03/01 10:20:24;;;;;;;4.10;2.47;;;23.50;29.30;;;;;;5031575;28;20214;-57
2021/03/01 10:22:50;;;;;;;4.35;3.13;;;23.50;29.20;;;;;;5032004;28;20229;-55
2021/03/01 10:25:16;;;;;;;3.08;2.20;;;23.50;29.30;;;;;;5030900;28;20547;-52
2021/03/01 10:27:42;;;;;;;4.72;2.75;;;23.50;29.20;;;;;;5031809;28;20218;-56
2021/03/01 10:30:08;;;;;;;4.45;2.70;;;23.50;29.30;;;;;;5031910;28;20202;-54
2021/03/01 10:32:34;;;;;;;2.53;2.33;;;23.50;29.20;;;;;;5029251;28;20206;-54
2021/03/01 10:34:59;;;;;;;2.97;2.78;;;23.50;29.20;;;;;;5031141;28;20202;-54
2021/03/01 10:37:26;;;;;;;3.28;2.50;;;23.50;29.20;;;;;;5031216;28;20225;-52
2021/03/01 10:39:53;;;;;;;2.85;2.38;;;23.60;29.20;;;;;;5031830;28;20209;-53
2021/03/01 10:42:19;;;;;;;3.90;2.50;;;23.60;29.20;;;;;;5015139;28;20203;-53
2021/03/01 10:44:45;;;;;;;2.58;2.30;;;23.60;29.10;;;;;;5028609;28;20206;-54
2021/03/01 10:47:11;;;;;;;3.13;2.53;;;23.60;29.10;;;;;;5029066;28;20218;-52
2021/03/01 10:49:37;;;;;;;2.78;2.33;;;23.60;29.10;;;;;;5030620;28;20198;-52
2021/03/01 10:52:03;;;;;;;4.40;2.53;;;23.60;29.10;;;;;;5024030;28;20211;-54
2021/03/01 10:54:29;;;;;;;2.92;2.65;;;23.60;29.10;;;;;;5030926;28;20582;-54
2021/03/01 10:56:55;;;;;;;2.42;2.20;;;23.60;29.10;;;;;;5031141;28;20249;-53
2021/03/01 10:59:21;;;;;;;3.30;2.47;;;23.60;29.10;;;;;;5030972;28;20245;-55
2021/03/01 11:01:47;;;;;;;2.75;2.30;;;23.60;29.70;;;;;;5031501;28;20199;-53
2021/03/01 11:04:13;;;;;;;2.60;2.40;;;23.60;29.10;;;;;;5030725;28;20207;-52
2021/03/01 11:06:39;;;;;;;4.38;2.80;;;23.60;29.10;;;;;;5031705;28;20218;-54
2021/03/01 11:09:04;;;;;;;2.65;2.40;;;23.60;29.20;;;;;;5031211;28;20206;-54
2021/03/01 11:11:30;;;;;;;2.60;2.40;;;23.60;29.20;;;;;;5031545;28;20544;-53
2021/03/01 11:13:56;;;;;;;3.45;3.05;;;23.60;29.20;;;;;;5031107;28;20562;-54
2021/03/01 11:16:22;;;;;;;2.85;2.40;;;23.60;29.20;;;;;;5034879;28;20722;-51
2021/03/01 11:18:48;;;;;;;9.40;3.28;;;23.60;29.10;;;;;;5030261;28;20234;-54
2021/03/01 11:21:14;;;;;;;5.35;2.72;;;23.60;29.00;;;;;;5014696;28;20219;-61
2021/03/01 11:23:40;;;;;;;3.35;2.65;;;23.60;29.00;;;;;;5027877;28;20199;-59
2021/03/01 11:26:06;;;;;;;2.85;2.50;;;23.70;29.50;;;;;;5028141;28;20229;-59
2021/03/01 11:28:32;;;;;;;4.95;2.42;;;23.70;29.30;;;;;;5033811;28;20206;-51
2021/03/01 11:30:58;;;;;;;2.47;2.22;;;23.80;29.60;;;;;;5032095;28;20202;-48
2021/03/01 11:33:24;;;;;;;4.35;2.60;;;23.80;29.40;;;;;;5033975;28;20210;-58
2021/03/01 11:35:51;;;;;;;3.85;2.42;;;23.90;29.40;;;;;;5026058;28;20229;-57
2021/03/01 11:38:17;;;;;;;3.67;2.63;;;23.80;29.40;;;;;;5029174;28;20699;-50
2021/03/01 11:40:43;;;;;;;4.55;2.42;;;23.90;30.00;;;;;;5032338;28;20249;-55
2021/03/01 11:43:09;;;;;;;3.88;2.70;;;23.90;29.90;;;;;;5033462;28;20203;-52
2021/03/01 11:45:35;;;;;;;5.60;2.70;;;23.90;29.60;;;;;;5030921;28;20230;-57
2021/03/01 11:48:00;;;;;;;3.42;2.22;;;23.90;29.90;;;;;;5027528;28;20199;-57
2021/03/01 11:50:27;;;;;;;3.55;2.80;;;23.90;29.60;;;;;;5032904;28;20206;-52
2021/03/01 11:52:53;;;;;;;3.15;2.30;;;23.80;29.80;;;;;;5029331;28;20206;-57
2021/03/01 11:55:19;;;;;;;3.75;2.40;;;23.90;29.80;;;;;;5030129;28;20227;-56
2021/03/01 11:57:45;;;;;;;2.83;2.60;;;23.80;29.70;;;;;;5021598;28;20222;-55
2021/03/01 12:00:11;;;;;;;4.80;2.60;;;23.70;29.60;;;;;;5022166;28;20195;-54
2021/03/01 12:02:37;;;;;;;2.72;2.40;;;23.80;29.70;;;;;;5019455;28;20253;-52
2021/03/01 12:05:03;;;;;;;3.17;2.30;;;23.70;29.50;;;;;;5021121;28;20199;-57
2021/03/01 12:07:29;;;;;;;2.88;2.13;;;23.70;29.70;;;;;;5024059;28;20207;-54
2021/03/01 12:09:54;;;;;;;2.40;2.20;;;23.70;29.50;;;;;;5024158;28;20210;-57
2021/03/01 12:12:20;;;;;;;2.50;2.20;;;23.70;29.60;;;;;;5024303;28;20520;-55
2021/03/01 12:14:46;;;;;;;2.90;2.10;;;23.60;29.50;;;;;;5023651;28;20202;-53
2021/03/01 12:17:12;;;;;;;4.10;2.30;;;23.70;29.60;;;;;;5020187;28;20223;-57
2021/03/01 12:19:39;;;;;;;3.22;2.58;;;23.70;29.60;;;;;;5023216;28;20686;-59
2021/03/01 12:22:05;;;;;;;3.53;2.55;;;23.70;29.50;;;;;;5021019;28;20299;-56
2021/03/01 12:24:31;;;;;;;3.47;2.33;;;23.80;29.90;;;;;;5022079;28;20223;-59
2021/03/01 12:26:57;;;;;;;3.97;2.50;;;23.80;29.70;;;;;;5021075;28;20226;-55
2021/03/01 12:29:23;;;;;;;3.30;2.10;;;23.80;29.90;;;;;;5024420;28;20203;-50
2021/03/01 12:31:49;;;;;;;3.08;1.98;;;23.80;29.60;;;;;;5023183;28;20268;-54
2021/03/01 12:34:15;;;;;;;3.97;2.08;;;23.80;29.60;;;;;;5023192;28;20257;-59
2021/03/01 12:36:40;;;;;;;4.00;2.50;;;23.80;29.80;;;;;;5020540;28;20690;-59